Time;durP1;ratioP1;P1;durP2;ratioP2;P2;SDS_P1;SDS_P2;PMS_P1;PMS_P2;Temp;Humidity;BMP_temperature;BMP_pressure;BME280_temperature;BME280_humidity;BME280_pressure;Samples;Min_cycle;Max_cycle;Signal;HPM_P1;HPM_P2
2024/03/31 00:04:35;;;;;;;16.23;5.63;;;;;;;;;;10279249;28;20091;-62
2024/03/31 00:09:33;;;;;;;14.35;4.97;;;;;;;;;;10267971;28;20525;-62
2024/03/31 00:14:32;;;;;;;14.45;4.50;;;;;;;;;;10275093;28;20084;-62
2024/03/31 00:19:29;;;;;;;16.08;4.80;;;;;;;;;;10273374;28;20072;-63
2024/03/31 00:24:28;;;;;;;13.60;4.68;;;;;;;;;;10280219;28;20517;-62
2024/03/31 00:29:26;;;;;;;14.18;4.43;;;;;;;;;;10279760;28;20074;-62
2024/03/31 00:34:24;;;;;;;19.50;5.70;;;;;;;;;;10279119;28;20062;-62
2024/03/31 00:39:21;;;;;;;17.17;4.95;;;;;;;;;;10282512;28;20072;-62
2024/03/31 00:44:20;;;;;;;20.40;5.53;;;;;;;;;;10269729;28;20041;-62
2024/03/31 00:49:17;;;;;;;16.88;4.70;;;;;;;;;;10280759;28;20114;-62
2024/03/31 00:54:15;;;;;;;18.08;5.07;;;;;;;;;;10278540;28;20467;-63
2024/03/31 00:59:12;;;;;;;17.20;5.70;;;;;;;;;;10269603;28;20044;-63
2024/03/31 01:04:11;;;;;;;15.02;5.22;;;;;;;;;;10285463;28;20079;-62
2024/03/31 01:09:09;;;;;;;16.75;5.50;;;;;;;;;;10278450;28;20071;-62
2024/03/31 01:14:07;;;;;;;16.58;5.80;;;;;;;;;;10265637;28;20091;-63
2024/03/31 01:19:08;;;;;;;15.65;4.25;;;;;;;;;;10278611;28;20076;-62
2024/03/31 01:24:07;;;;;;;18.70;6.18;;;;;;;;;;10279248;28;20080;-62
2024/03/31 01:29:05;;;;;;;12.85;4.47;;;;;;;;;;10294074;28;20080;-62
2024/03/31 01:34:03;;;;;;;16.08;5.38;;;;;;;;;;10293242;28;20040;-62
2024/03/31 01:39:00;;;;;;;11.32;5.15;;;;;;;;;;10276394;28;20095;-62
2024/03/31 01:43:59;;;;;;;13.80;4.45;;;;;;;;;;10277535;28;20072;-62
2024/03/31 01:48:56;;;;;;;16.02;5.10;;;;;;;;;;10277149;28;20497;-63
2024/03/31 01:53:54;;;;;;;18.23;6.20;;;;;;;;;;10264640;28;20076;-63
2024/03/31 01:58:51;;;;;;;16.13;4.75;;;;;;;;;;10266897;28;20080;-63
2024/03/31 02:03:50;;;;;;;14.13;4.85;;;;;;;;;;10279024;28;20079;-62
2024/03/31 02:08:49;;;;;;;16.45;4.82;;;;;;;;;;10297111;28;20051;-62
2024/03/31 02:13:46;;;;;;;21.80;4.75;;;;;;;;;;10277354;28;20076;-62
2024/03/31 02:18:44;;;;;;;11.90;4.50;;;;;;;;;;10268570;28;20073;-62
2024/03/31 02:23:43;;;;;;;10.75;4.63;;;;;;;;;;10286200;28;20082;-63
2024/03/31 02:28:40;;;;;;;15.55;4.50;;;;;;;;;;10266567;28;20833;-63
2024/03/31 02:33:38;;;;;;;16.23;4.30;;;;;;;;;;10276356;28;20453;-63
2024/03/31 02:38:44;;;;;;;12.65;3.97;;;;;;;;;;10265925;28;20099;-63
2024/03/31 02:43:42;;;;;;;11.75;4.32;;;;;;;;;;10273002;28;20075;-62
2024/03/31 02:48:40;;;;;;;22.20;4.75;;;;;;;;;;10261971;28;20505;-62
2024/03/31 02:53:40;;;;;;;18.27;4.38;;;;;;;;;;10264640;28;20075;-62
2024/03/31 02:58:39;;;;;;;17.38;4.25;;;;;;;;;;10263099;28;20470;-62
2024/03/31 03:03:39;;;;;;;13.85;4.72;;;;;;;;;;10291515;28;20079;-63
2024/03/31 03:08:36;;;;;;;17.95;4.78;;;;;;;;;;10275073;28;20092;-63
2024/03/31 03:13:34;;;;;;;16.05;4.88;;;;;;;;;;10265084;28;20085;-62
2024/03/31 03:18:34;;;;;;;12.68;4.03;;;;;;;;;;10309565;28;20072;-62
2024/03/31 03:23:32;;;;;;;20.85;4.90;;;;;;;;;;10262886;28;20134;-62
2024/03/31 03:28:29;;;;;;;15.05;4.68;;;;;;;;;;10267999;28;20415;-62
2024/03/31 03:33:28;;;;;;;10.80;4.15;;;;;;;;;;10257826;28;20076;-62
2024/03/31 03:38:29;;;;;;;12.68;4.32;;;;;;;;;;10264402;28;20073;-63
2024/03/31 03:43:32;;;;;;;13.48;4.13;;;;;;;;;;10274362;28;20069;-62
2024/03/31 03:48:35;;;;;;;16.17;4.55;;;;;;;;;;10273865;28;20083;-63
2024/03/31 03:53:34;;;;;;;11.55;4.43;;;;;;;;;;10271515;28;20080;-62
2024/03/31 03:58:31;;;;;;;14.05;4.55;;;;;;;;;;10270764;28;20557;-62
2024/03/31 04:03:28;;;;;;;10.90;4.38;;;;;;;;;;10282556;28;20060;-62
2024/03/31 04:08:26;;;;;;;20.08;4.38;;;;;;;;;;10283406;28;20094;-63
2024/03/31 04:13:26;;;;;;;13.77;4.28;;;;;;;;;;10271150;28;20553;-63
2024/03/31 04:18:24;;;;;;;17.65;3.80;;;;;;;;;;10271027;28;20102;-62
2024/03/31 04:23:22;;;;;;;13.85;3.92;;;;;;;;;;10281191;28;20076;-63
2024/03/31 04:28:20;;;;;;;15.73;3.83;;;;;;;;;;10301960;28;20040;-62
2024/03/31 04:33:19;;;;;;;15.52;4.68;;;;;;;;;;10268816;28;20041;-63
2024/03/31 04:38:16;;;;;;;14.38;4.10;;;;;;;;;;10288020;28;20068;-61
2024/03/31 04:43:14;;;;;;;15.35;4.30;;;;;;;;;;10286999;28;20422;-62
2024/03/31 04:48:12;;;;;;;15.07;4.72;;;;;;;;;;10269136;28;20513;-62
2024/03/31 04:53:11;;;;;;;14.88;6.28;;;;;;;;;;10279286;28;20045;-62
2024/03/31 04:58:08;;;;;;;15.00;4.57;;;;;;;;;;10271090;28;20638;-62
2024/03/31 05:03:06;;;;;;;15.00;5.03;;;;;;;;;;10270299;28;20466;-62
2024/03/31 05:08:04;;;;;;;15.05;5.22;;;;;;;;;;10262754;28;20048;-62
2024/03/31 05:13:03;;;;;;;11.07;4.82;;;;;;;;;;10301175;28;20080;-62
2024/03/31 05:18:01;;;;;;;16.60;4.65;;;;;;;;;;10266009;28;20072;-62
2024/03/31 05:23:01;;;;;;;15.15;4.68;;;;;;;;;;10270249;28;20068;-62
2024/03/31 05:27:58;;;;;;;14.23;4.30;;;;;;;;;;10293757;28;20083;-62
2024/03/31 05:32:57;;;;;;;11.20;4.13;;;;;;;;;;10265464;28;20083;-62
2024/03/31 05:38:05;;;;;;;13.35;7.50;;;;;;;;;;10268405;28;20537;-62
2024/03/31 05:43:03;;;;;;;14.50;5.28;;;;;;;;;;10258671;28;20064;-61
2024/03/31 05:48:02;;;;;;;14.20;4.38;;;;;;;;;;10300398;28;20077;-61
2024/03/31 05:53:02;;;;;;;12.07;4.22;;;;;;;;;;10262198;28;20665;-61
2024/03/31 05:58:00;;;;;;;10.80;4.03;;;;;;;;;;10269295;28;20834;-61
2024/03/31 06:02:58;;;;;;;12.07;4.00;;;;;;;;;;10264487;28;20044;-62
2024/03/31 06:07:59;;;;;;;8.82;4.75;;;;;;;;;;10267194;28;20072;-62
2024/03/31 06:12:56;;;;;;;10.93;3.88;;;;;;;;;;10268501;28;20080;-60
2024/03/31 06:17:54;;;;;;;10.35;3.95;;;;;;;;;;10274634;28;20076;-61
2024/03/31 06:22:52;;;;;;;14.57;3.90;;;;;;;;;;10266165;28;20072;-62
2024/03/31 06:27:51;;;;;;;18.02;4.22;;;;;;;;;;10289811;28;20099;-60
2024/03/31 06:32:49;;;;;;;8.20;3.53;;;;;;;;;;10298816;28;20091;-62
2024/03/31 06:37:46;;;;;;;12.60;4.38;;;;;;;;;;10259748;28;20184;-61
2024/03/31 06:42:45;;;;;;;11.82;4.63;;;;;;;;;;10260185;28;20080;-65
2024/03/31 06:47:44;;;;;;;11.98;4.43;;;;;;;;;;10270019;28;20527;-62
2024/03/31 06:52:42;;;;;;;13.57;3.90;;;;;;;;;;10257968;28;20516;-62
2024/03/31 06:57:40;;;;;;;12.45;3.65;;;;;;;;;;10255895;28;20524;-62
2024/03/31 07:02:37;;;;;;;13.48;4.97;;;;;;;;;;10263165;28;20090;-62
2024/03/31 07:07:37;;;;;;;10.88;4.18;;;;;;;;;;10260125;28;20084;-61
2024/03/31 07:12:34;;;;;;;12.52;4.20;;;;;;;;;;10273512;28;20324;-62
2024/03/31 07:17:34;;;;;;;13.55;4.38;;;;;;;;;;10265337;28;20083;-62
2024/03/31 07:22:35;;;;;;;13.10;4.53;;;;;;;;;;10272153;28;20076;-63
2024/03/31 07:27:34;;;;;;;8.88;4.65;;;;;;;;;;10257779;28;20147;-62
2024/03/31 07:32:31;;;;;;;9.18;3.92;;;;;;;;;;10281172;28;20094;-62
2024/03/31 07:37:29;;;;;;;16.77;5.20;;;;;;;;;;10272012;28;20068;-62
2024/03/31 07:42:26;;;;;;;13.60;5.20;;;;;;;;;;10280899;28;20186;-62
2024/03/31 07:47:25;;;;;;;14.55;5.07;;;;;;;;;;10281246;28;20064;-62
2024/03/31 07:52:23;;;;;;;11.95;4.57;;;;;;;;;;10282110;28;20072;-62
2024/03/31 07:57:20;;;;;;;22.77;4.15;;;;;;;;;;10280405;28;20073;-62
2024/03/31 08:02:17;;;;;;;10.65;3.63;;;;;;;;;;10280440;28;20060;-62
2024/03/31 08:07:16;;;;;;;7.05;3.40;;;;;;;;;;10279865;28;20068;-62
2024/03/31 08:12:14;;;;;;;8.52;3.88;;;;;;;;;;10287973;28;20115;-63
2024/03/31 08:17:11;;;;;;;16.65;3.78;;;;;;;;;;10288362;28;20087;-62
2024/03/31 08:22:09;;;;;;;6.57;2.53;;;;;;;;;;10290318;28;20064;-61
2024/03/31 08:27:09;;;;;;;11.00;2.88;;;;;;;;;;10279029;28;20128;-63
2024/03/31 08:32:07;;;;;;;6.80;2.33;;;;;;;;;;10285845;28;20068;-62
2024/03/31 08:37:04;;;;;;;8.15;2.63;;;;;;;;;;10276531;28;20072;-61
2024/03/31 08:42:07;;;;;;;11.63;3.95;;;;;;;;;;10280717;28;20064;-61
2024/03/31 08:47:06;;;;;;;4.35;2.53;;;;;;;;;;10282986;28;20064;-62
2024/03/31 08:52:04;;;;;;;8.25;2.90;;;;;;;;;;10300730;28;20075;-63
2024/03/31 08:57:01;;;;;;;11.23;3.60;;;;;;;;;;10282615;28;20064;-63
2024/03/31 09:01:59;;;;;;;11.23;3.45;;;;;;;;;;10278464;28;20108;-62
2024/03/31 09:06:58;;;;;;;7.32;2.97;;;;;;;;;;10277171;28;20552;-63
2024/03/31 09:11:56;;;;;;;8.85;2.78;;;;;;;;;;10281247;28;20089;-62
2024/03/31 09:16:53;;;;;;;5.40;2.90;;;;;;;;;;10280658;28;20079;-63
2024/03/31 09:21:51;;;;;;;4.57;2.38;;;;;;;;;;10308584;28;20463;-62
2024/03/31 09:26:50;;;;;;;6.60;2.25;;;;;;;;;;10275160;28;20072;-63
2024/03/31 09:31:48;;;;;;;9.65;2.53;;;;;;;;;;10283123;28;20080;-64
2024/03/31 09:36:45;;;;;;;11.13;3.08;;;;;;;;;;10273820;28;20083;-65
2024/03/31 09:41:43;;;;;;;16.33;3.55;;;;;;;;;;10273440;28;20060;-66
2024/03/31 09:46:42;;;;;;;6.63;2.78;;;;;;;;;;10287453;28;20466;-63
2024/03/31 09:51:40;;;;;;;7.50;2.75;;;;;;;;;;10296365;28;20600;-65
2024/03/31 09:56:41;;;;;;;6.78;2.47;;;;;;;;;;10280789;28;20517;-62
2024/03/31 10:01:39;;;;;;;7.50;3.20;;;;;;;;;;10290949;28;20068;-63
2024/03/31 10:06:39;;;;;;;7.20;2.65;;;;;;;;;;10293057;28;20072;-62
2024/03/31 10:11:36;;;;;;;6.72;2.65;;;;;;;;;;10286276;28;20081;-63
2024/03/31 10:16:42;;;;;;;11.73;2.40;;;;;;;;;;10405848;27;20916;-63
2024/03/31 10:21:40;;;;;;;9.27;3.47;;;;;;;;;;10401319;28;20475;-62
2024/03/31 10:26:38;;;;;;;4.90;2.22;;;;;;;;;;10406418;28;20063;-63
2024/03/31 10:31:35;;;;;;;7.10;2.97;;;;;;;;;;10404604;28;20071;-63
2024/03/31 10:36:34;;;;;;;4.47;2.35;;;;;;;;;;10415160;28;20492;-65
2024/03/31 10:41:32;;;;;;;5.38;2.80;;;;;;;;;;10405388;28;20067;-64
2024/03/31 10:46:29;;;;;;;6.38;2.30;;;;;;;;;;10401647;28;20071;-63
2024/03/31 10:51:27;;;;;;;5.78;2.45;;;;;;;;;;10399979;28;20516;-62
2024/03/31 10:56:27;;;;;;;10.98;3.53;;;;;;;;;;10398641;28;20078;-63
2024/03/31 11:01:26;;;;;;;4.75;1.90;;;;;;;;;;10399971;28;20091;-62
2024/03/31 11:06:25;;;;;;;5.60;2.45;;;;;;;;;;10397951;28;20087;-63
2024/03/31 11:11:22;;;;;;;10.23;4.00;;;;;;;;;;10401196;28;20075;-64
2024/03/31 11:16:21;;;;;;;5.10;3.03;;;;;;;;;;10399162;28;20074;-63
2024/03/31 11:21:19;;;;;;;6.43;2.72;;;;;;;;;;10400043;28;20102;-61
2024/03/31 11:26:17;;;;;;;6.47;2.20;;;;;;;;;;10383604;28;20075;-62
2024/03/31 11:31:16;;;;;;;6.05;2.72;;;;;;;;;;10372558;28;20501;-63
2024/03/31 11:36:16;;;;;;;9.60;3.45;;;;;;;;;;10375403;28;20113;-62
2024/03/31 11:41:14;;;;;;;9.13;3.35;;;;;;;;;;10377777;28;20067;-62
2024/03/31 11:46:11;;;;;;;8.38;2.90;;;;;;;;;;10370426;28;20072;-62
2024/03/31 11:51:08;;;;;;;7.07;3.88;;;;;;;;;;10373062;28;20076;-63
2024/03/31 11:56:08;;;;;;;9.95;4.22;;;;;;;;;;10371248;28;20070;-62
2024/03/31 12:01:07;;;;;;;10.00;3.70;;;;;;;;;;10372443;28;20067;-63
2024/03/31 12:06:05;;;;;;;5.93;2.83;;;;;;;;;;10370203;28;20082;-63
2024/03/31 12:11:02;;;;;;;9.20;3.35;;;;;;;;;;10380250;28;20072;-62
2024/03/31 12:16:01;;;;;;;4.90;2.47;;;;;;;;;;10371547;28;20079;-64
2024/03/31 12:20:59;;;;;;;4.47;2.35;;;;;;;;;;10369739;28;20067;-64
2024/03/31 12:25:56;;;;;;;15.50;3.17;;;;;;;;;;10370505;28;20070;-65
2024/03/31 12:30:54;;;;;;;7.57;2.35;;;;;;;;;;10370074;28;20641;-63
2024/03/31 12:35:57;;;;;;;3.38;2.13;;;;;;;;;;10367794;28;20064;-65
2024/03/31 12:40:55;;;;;;;8.65;3.45;;;;;;;;;;10369487;28;20460;-65
2024/03/31 12:45:52;;;;;;;9.88;2.70;;;;;;;;;;10369589;28;20063;-66
2024/03/31 12:50:50;;;;;;;4.88;2.58;;;;;;;;;;10369163;28;20055;-64
2024/03/31 12:55:50;;;;;;;5.65;2.40;;;;;;;;;;10371435;28;20066;-65
2024/03/31 13:00:48;;;;;;;5.00;3.00;;;;;;;;;;10368241;28;20060;-64
2024/03/31 13:05:46;;;;;;;6.25;4.53;;;;;;;;;;10377966;28;20078;-64
2024/03/31 13:10:43;;;;;;;24.60;20.15;;;;;;;;;;10367150;28;20067;-66
2024/03/31 13:15:42;;;;;;;7.05;3.10;;;;;;;;;;10369553;28;20083;-64
2024/03/31 13:20:40;;;;;;;8.23;3.10;;;;;;;;;;10370448;28;20080;-64
2024/03/31 13:25:37;;;;;;;4.03;2.60;;;;;;;;;;10363524;28;20087;-64
2024/03/31 13:30:35;;;;;;;8.43;3.10;;;;;;;;;;10359261;28;20078;-63
2024/03/31 13:35:34;;;;;;;8.05;2.80;;;;;;;;;;10360167;28;20066;-64
2024/03/31 13:40:32;;;;;;;7.13;2.40;;;;;;;;;;10369319;28;20075;-63
2024/03/31 13:45:29;;;;;;;5.28;2.22;;;;;;;;;;10365307;28;20068;-65
2024/03/31 13:50:27;;;;;;;7.43;4.13;;;;;;;;;;10365557;28;20067;-63
2024/03/31 13:55:25;;;;;;;8.90;2.90;;;;;;;;;;10365308;28;20116;-64
2024/03/31 14:00:23;;;;;;;4.13;2.40;;;;;;;;;;10367779;28;20527;-64
2024/03/31 14:05:20;;;;;;;5.82;2.95;;;;;;;;;;10368330;28;20071;-63
2024/03/31 14:10:18;;;;;;;6.95;3.13;;;;;;;;;;10365737;28;20106;-64
2024/03/31 14:15:17;;;;;;;11.88;3.03;;;;;;;;;;10365747;28;20125;-63
2024/03/31 14:20:15;;;;;;;6.05;3.10;;;;;;;;;;10366138;28;20444;-64
2024/03/31 14:25:12;;;;;;;8.85;3.45;;;;;;;;;;10368805;28;20416;-65
2024/03/31 14:30:10;;;;;;;8.90;2.30;;;;;;;;;;10357550;28;20072;-64
2024/03/31 14:35:09;;;;;;;7.20;2.85;;;;;;;;;;10365677;28;21384;-64
2024/03/31 14:40:07;;;;;;;8.32;2.97;;;;;;;;;;10374314;28;20075;-62
2024/03/31 14:45:05;;;;;;;6.60;3.28;;;;;;;;;;10368254;28;20080;-64
2024/03/31 14:50:03;;;;;;;4.47;2.38;;;;;;;;;;10376413;28;20036;-63
2024/03/31 14:55:01;;;;;;;9.45;2.40;;;;;;;;;;10374087;28;20213;-65
2024/03/31 15:00:03;;;;;;;5.25;2.67;;;;;;;;;;10367747;28;20068;-64
2024/03/31 15:05:00;;;;;;;7.85;3.78;;;;;;;;;;10372966;28;20059;-64
2024/03/31 15:09:58;;;;;;;11.80;4.00;;;;;;;;;;10373469;28;20067;-64
2024/03/31 15:14:57;;;;;;;8.82;3.13;;;;;;;;;;10372489;28;20089;-64
2024/03/31 15:19:54;;;;;;;6.43;3.38;;;;;;;;;;10371797;28;20078;-64
2024/03/31 15:24:52;;;;;;;10.63;6.80;;;;;;;;;;10373653;28;20067;-63
2024/03/31 15:29:49;;;;;;;9.18;3.72;;;;;;;;;;10388551;27;20083;-64
2024/03/31 15:34:48;;;;;;;7.65;3.33;;;;;;;;;;10371379;28;20071;-65
2024/03/31 15:39:45;;;;;;;9.20;3.22;;;;;;;;;;10373090;28;20102;-64
2024/03/31 15:44:43;;;;;;;9.40;4.20;;;;;;;;;;10383457;28;20074;-66
2024/03/31 15:49:40;;;;;;;9.88;3.30;;;;;;;;;;10372313;28;20078;-64
2024/03/31 15:54:39;;;;;;;5.93;2.95;;;;;;;;;;10370960;28;20094;-64
2024/03/31 15:59:37;;;;;;;5.70;3.80;;;;;;;;;;10371917;28;20075;-65
2024/03/31 16:04:34;;;;;;;14.48;5.97;;;;;;;;;;10370815;28;20063;-64
2024/03/31 16:09:31;;;;;;;14.07;5.07;;;;;;;;;;10358052;28;20040;-64
2024/03/31 16:14:30;;;;;;;11.90;5.95;;;;;;;;;;10380090;28;20532;-63
2024/03/31 16:19:28;;;;;;;11.75;5.35;;;;;;;;;;10370415;28;20063;-65
2024/03/31 16:24:25;;;;;;;12.55;6.25;;;;;;;;;;10371201;28;20082;-64
2024/03/31 16:29:23;;;;;;;9.77;4.50;;;;;;;;;;10354141;28;20082;-64
2024/03/31 16:34:21;;;;;;;12.63;4.88;;;;;;;;;;10369281;28;20075;-64
2024/03/31 16:39:19;;;;;;;12.38;5.05;;;;;;;;;;10368766;28;20071;-63
2024/03/31 16:44:16;;;;;;;13.52;5.88;;;;;;;;;;10370363;28;20075;-63
2024/03/31 16:49:14;;;;;;;12.30;5.72;;;;;;;;;;10369326;28;20445;-65
2024/03/31 16:54:12;;;;;;;9.65;5.15;;;;;;;;;;10369961;28;20082;-64
2024/03/31 16:59:10;;;;;;;14.65;5.47;;;;;;;;;;10368911;28;20071;-64
2024/03/31 17:04:08;;;;;;;10.68;4.88;;;;;;;;;;10369485;28;20067;-64
2024/03/31 17:09:07;;;;;;;12.32;4.80;;;;;;;;;;10372270;27;20083;-64
2024/03/31 17:14:06;;;;;;;7.78;4.38;;;;;;;;;;10376055;28;20071;-65
2024/03/31 17:19:03;;;;;;;9.32;3.60;;;;;;;;;;10378872;28;20056;-65
2024/03/31 17:24:02;;;;;;;6.43;4.60;;;;;;;;;;10367903;28;20059;-65
2024/03/31 17:28:59;;;;;;;8.30;4.00;;;;;;;;;;10373618;28;20059;-64
2024/03/31 17:33:58;;;;;;;9.20;5.20;;;;;;;;;;10369004;28;20075;-64
2024/03/31 17:38:55;;;;;;;8.88;4.85;;;;;;;;;;10370787;28;20084;-64
2024/03/31 17:43:53;;;;;;;15.52;6.65;;;;;;;;;;10368384;28;20082;-65
2024/03/31 17:48:51;;;;;;;14.60;8.13;;;;;;;;;;10371096;28;20082;-64
2024/03/31 17:53:50;;;;;;;14.38;7.28;;;;;;;;;;10359779;28;20082;-63
2024/03/31 17:58:50;;;;;;;11.55;5.85;;;;;;;;;;10364092;28;20901;-63
2024/03/31 18:03:50;;;;;;;11.55;6.03;;;;;;;;;;10363864;28;20051;-64
2024/03/31 18:08:47;;;;;;;13.43;11.07;;;;;;;;;;10367482;28;20508;-64
2024/03/31 18:13:46;;;;;;;10.38;9.35;;;;;;;;;;10364255;28;20564;-64
2024/03/31 18:18:45;;;;;;;14.55;5.53;;;;;;;;;;10347060;28;20091;-64
2024/03/31 18:23:43;;;;;;;5.68;3.25;;;;;;;;;;10372229;28;20481;-64
2024/03/31 18:28:41;;;;;;;11.52;6.75;;;;;;;;;;10371347;28;20087;-63
2024/03/31 18:33:41;;;;;;;10.85;6.13;;;;;;;;;;10372909;28;20067;-64
2024/03/31 18:38:38;;;;;;;14.15;5.82;;;;;;;;;;10371879;28;20083;-65
2024/03/31 18:43:36;;;;;;;7.32;3.15;;;;;;;;;;10373102;28;20534;-64
2024/03/31 18:48:34;;;;;;;9.00;2.78;;;;;;;;;;10370578;28;20510;-63
2024/03/31 18:53:33;;;;;;;8.32;3.47;;;;;;;;;;10377736;28;20059;-64
2024/03/31 18:58:32;;;;;;;9.38;2.72;;;;;;;;;;10377740;28;20454;-64
2024/03/31 19:03:30;;;;;;;8.07;3.05;;;;;;;;;;10374601;28;20072;-64
2024/03/31 19:08:27;;;;;;;7.47;3.05;;;;;;;;;;10376651;28;20063;-64
2024/03/31 19:13:26;;;;;;;6.40;3.75;;;;;;;;;;10379055;28;20082;-64
2024/03/31 19:18:23;;;;;;;9.57;4.68;;;;;;;;;;10376656;28;20072;-64
2024/03/31 19:23:21;;;;;;;8.77;4.15;;;;;;;;;;10371439;28;20056;-64
2024/03/31 19:28:18;;;;;;;8.20;4.35;;;;;;;;;;10371962;28;20102;-65
2024/03/31 19:33:17;;;;;;;14.32;6.10;;;;;;;;;;10372424;28;20064;-65
2024/03/31 19:38:15;;;;;;;9.45;6.38;;;;;;;;;;10376908;28;20071;-65
2024/03/31 19:43:12;;;;;;;7.47;3.78;;;;;;;;;;10372828;28;20134;-65
2024/03/31 19:48:10;;;;;;;6.68;3.50;;;;;;;;;;10374653;28;20452;-63
2024/03/31 19:53:09;;;;;;;15.50;3.40;;;;;;;;;;10373766;28;20067;-66
2024/03/31 19:58:06;;;;;;;6.65;2.53;;;;;;;;;;10383111;28;20066;-64
2024/03/31 20:03:04;;;;;;;7.78;2.78;;;;;;;;;;10369168;28;20076;-64
2024/03/31 20:08:02;;;;;;;7.53;2.92;;;;;;;;;;10360386;28;20508;-65
2024/03/31 20:13:00;;;;;;;8.15;3.15;;;;;;;;;;10364605;28;20076;-63
2024/03/31 20:17:58;;;;;;;14.25;3.42;;;;;;;;;;10369909;28;20067;-64
2024/03/31 20:22:55;;;;;;;9.30;3.00;;;;;;;;;;10368598;28;20059;-63
2024/03/31 20:27:53;;;;;;;11.20;3.75;;;;;;;;;;10375813;28;20086;-65
2024/03/31 20:32:52;;;;;;;23.08;3.25;;;;;;;;;;10361604;28;20074;-64
2024/03/31 20:37:49;;;;;;;10.65;3.92;;;;;;;;;;10372609;28;20130;-62
2024/03/31 20:42:47;;;;;;;20.33;5.65;;;;;;;;;;10367418;28;20075;-65
2024/03/31 20:47:44;;;;;;;16.35;4.40;;;;;;;;;;10368025;28;20075;-65
2024/03/31 20:52:43;;;;;;;23.38;5.57;;;;;;;;;;10370562;28;20071;-64
2024/03/31 20:57:41;;;;;;;25.20;5.10;;;;;;;;;;10365819;28;20500;-63
2024/03/31 21:02:38;;;;;;;21.20;5.03;;;;;;;;;;10371239;28;20067;-64
2024/03/31 21:07:35;;;;;;;21.52;4.30;;;;;;;;;;10367853;28;20063;-63
2024/03/31 21:12:34;;;;;;;25.33;5.28;;;;;;;;;;10365774;28;20068;-63
2024/03/31 21:17:32;;;;;;;22.58;4.78;;;;;;;;;;10367912;28;20070;-64
2024/03/31 21:22:29;;;;;;;16.02;4.43;;;;;;;;;;10376631;28;20155;-65
2024/03/31 21:27:27;;;;;;;19.73;5.10;;;;;;;;;;10372322;28;20707;-64
2024/03/31 21:32:26;;;;;;;23.92;5.97;;;;;;;;;;10366573;28;20064;-63
2024/03/31 21:37:23;;;;;;;24.92;4.75;;;;;;;;;;10363680;28;20067;-64
2024/03/31 21:42:21;;;;;;;23.00;5.03;;;;;;;;;;10370060;28;20527;-64
2024/03/31 21:47:18;;;;;;;22.88;4.45;;;;;;;;;;10367904;28;20075;-64
2024/03/31 21:52:17;;;;;;;15.80;3.75;;;;;;;;;;10366537;28;20067;-65
2024/03/31 21:57:15;;;;;;;25.45;5.20;;;;;;;;;;10365207;28;20543;-65
2024/03/31 22:02:12;;;;;;;15.07;4.90;;;;;;;;;;10367796;28;20466;-64
2024/03/31 22:07:10;;;;;;;25.60;4.82;;;;;;;;;;10365909;28;20492;-63
2024/03/31 22:12:09;;;;;;;22.58;3.90;;;;;;;;;;10365982;28;20554;-63
2024/03/31 22:17:07;;;;;;;18.77;4.57;;;;;;;;;;10376248;28;20068;-63
2024/03/31 22:22:04;;;;;;;19.67;5.05;;;;;;;;;;10376933;28;20068;-64
2024/03/31 22:27:02;;;;;;;21.58;4.82;;;;;;;;;;10366666;28;20488;-64
2024/03/31 22:32:01;;;;;;;18.27;4.13;;;;;;;;;;10364905;28;20095;-64
2024/03/31 22:36:59;;;;;;;20.08;4.55;;;;;;;;;;10375202;28;20071;-62
2024/03/31 22:41:56;;;;;;;15.68;4.30;;;;;;;;;;10371758;28;20063;-64
2024/03/31 22:46:54;;;;;;;16.52;4.65;;;;;;;;;;10365608;28;20560;-62
2024/03/31 22:51:52;;;;;;;13.07;4.28;;;;;;;;;;10371305;28;20056;-62
2024/03/31 22:56:50;;;;;;;25.63;5.15;;;;;;;;;;10365821;28;20072;-63
2024/03/31 23:01:47;;;;;;;15.45;4.32;;;;;;;;;;10365585;28;20499;-62
2024/03/31 23:06:45;;;;;;;17.20;3.97;;;;;;;;;;10365359;28;20059;-63
2024/03/31 23:11:43;;;;;;;16.17;4.35;;;;;;;;;;10365050;28;20078;-63
2024/03/31 23:16:41;;;;;;;16.73;4.65;;;;;;;;;;10367484;28;20067;-64
2024/03/31 23:21:38;;;;;;;19.42;5.07;;;;;;;;;;10368577;28;20453;-63
2024/03/31 23:26:36;;;;;;;21.05;4.95;;;;;;;;;;10372913;28;20068;-63
2024/03/31 23:31:35;;;;;;;15.40;4.57;;;;;;;;;;10373647;28;20531;-63
2024/03/31 23:36:32;;;;;;;19.40;5.13;;;;;;;;;;10373554;28;20604;-63
2024/03/31 23:41:30;;;;;;;25.48;4.90;;;;;;;;;;10374284;28;20095;-63
2024/03/31 23:46:27;;;;;;;23.08;5.32;;;;;;;;;;10384351;28;20063;-63
2024/03/31 23:51:27;;;;;;;22.90;5.28;;;;;;;;;;10374154;28;20082;-62
2024/03/31 23:56:24;;;;;;;21.65;5.15;;;;;;;;;;10379410;28;20495;-64
